Time;durP1;ratioP1;P1;durP2;ratioP2;P2;SDS_P1;SDS_P2;PMS_P1;PMS_P2;Temp;Humidity;BMP_temperature;BMP_pressure;BME280_temperature;BME280_humidity;BME280_pressure;Samples;Min_cycle;Max_cycle;Signal;HPM_P1;HPM_P2
2022/04/08 00:01:44;;;;;;;0.20;0.20;;;;;;;22.06;42.77;98789.00;5131209;28;20521;-68
2022/04/08 00:04:10;;;;;;;0.68;0.40;;;;;;;22.08;42.56;98794.19;5131312;28;20083;-67
2022/04/08 00:06:35;;;;;;;0.28;0.20;;;;;;;22.06;42.47;98794.56;5131065;28;20040;-69
2022/04/08 00:09:01;;;;;;;0.20;0.20;;;;;;;22.07;42.55;98782.22;5130707;27;20043;-68
2022/04/08 00:11:27;;;;;;;0.63;0.30;;;;;;;22.07;42.69;98781.44;5131206;28;20126;-68
2022/04/08 00:13:53;;;;;;;0.35;0.28;;;;;;;22.06;42.53;98783.44;5131199;28;20188;-68
2022/04/08 00:16:20;;;;;;;0.75;0.40;;;;;;;22.06;42.52;98775.06;5130762;28;20047;-68
2022/04/08 00:18:45;;;;;;;0.93;0.40;;;;;;;22.06;42.38;98766.72;5130924;28;20541;-70
2022/04/08 00:21:11;;;;;;;0.75;0.40;;;;;;;22.07;42.39;98764.72;5131094;28;20071;-67
2022/04/08 00:23:37;;;;;;;0.32;0.30;;;;;;;22.05;42.53;98753.19;5130837;28;20062;-68
2022/04/08 00:26:03;;;;;;;0.35;0.20;;;;;;;22.04;42.55;98754.41;5130996;28;20046;-68
2022/04/08 00:28:28;;;;;;;0.30;0.30;;;;;;;22.06;42.32;98754.78;5131005;28;20067;-68
2022/04/08 00:30:54;;;;;;;0.57;0.40;;;;;;;22.05;42.20;98747.63;5130985;28;20085;-68
2022/04/08 00:33:19;;;;;;;0.82;0.50;;;;;;;22.06;42.65;98750.00;5130808;28;20046;-67
2022/04/08 00:35:45;;;;;;;0.35;0.20;;;;;;;22.05;42.29;98750.41;5130699;28;20126;-68
2022/04/08 00:38:10;;;;;;;0.82;0.40;;;;;;;22.05;42.39;98744.84;5130538;28;20418;-67
2022/04/08 00:40:36;;;;;;;0.50;0.30;;;;;;;22.04;42.46;98746.84;5130631;28;20572;-69
2022/04/08 00:43:11;;;;;;;0.32;0.30;;;;;;;22.02;42.49;98738.09;5130738;28;20096;-67
2022/04/08 00:45:36;;;;;;;0.35;0.20;;;;;;;22.03;42.46;98742.47;5130774;28;20070;-68
2022/04/08 00:48:06;;;;;;;0.20;0.20;;;;;;;22.05;42.53;98736.47;5130708;28;20131;-69
2022/04/08 00:50:31;;;;;;;0.20;0.20;;;;;;;22.04;42.57;98734.91;5130730;28;20506;-68
2022/04/08 00:52:58;;;;;;;0.25;0.20;;;;;;;22.05;42.36;98725.34;5130594;28;20042;-69
2022/04/08 00:55:24;;;;;;;0.28;0.22;;;;;;;22.04;42.43;98726.53;5130273;28;20047;-67
2022/04/08 00:57:50;;;;;;;0.22;0.20;;;;;;;22.04;42.57;98718.97;5130460;28;20055;-68
2022/04/08 01:00:15;;;;;;;0.45;0.30;;;;;;;22.02;42.34;98718.59;5130537;28;20126;-68
2022/04/08 01:02:40;;;;;;;0.30;0.30;;;;;;;22.03;42.45;98722.19;5130313;28;20491;-61
2022/04/08 01:05:06;;;;;;;0.60;0.40;;;;;;;22.03;42.20;98713.81;5130554;28;20039;-62
2022/04/08 01:07:32;;;;;;;0.20;0.15;;;;;;;22.01;42.40;98717.00;5126320;28;20399;-62
2022/04/08 01:09:58;;;;;;;0.40;0.28;;;;;;;22.03;42.28;98705.47;5130185;28;20055;-61
2022/04/08 01:12:24;;;;;;;0.30;0.20;;;;;;;22.03;42.37;98713.81;5130458;28;20040;-62
2022/04/08 01:14:57;;;;;;;0.32;0.20;;;;;;;22.04;42.28;98704.28;5130279;28;20093;-61
2022/04/08 01:17:22;;;;;;;;;;;;;;;22.05;42.18;98694.72;5130534;28;20084;-61
2022/04/08 01:19:47;;;;;;;0.53;0.30;;;;;;;22.03;42.10;98697.91;5130825;27;20331;-61
2022/04/08 01:22:13;;;;;;;0.25;0.25;;;;;;;22.01;42.12;98686.38;5133902;28;20327;-61
2022/04/08 01:24:40;;;;;;;0.47;0.20;;;;;;;22.01;42.26;98680.81;5133978;28;20065;-61
2022/04/08 01:27:05;;;;;;;0.25;0.20;;;;;;;22.02;42.20;98681.59;5133885;28;20075;-61
2022/04/08 01:29:31;;;;;;;0.28;0.17;;;;;;;22.02;42.08;98685.19;5133856;28;20139;-68
2022/04/08 01:31:56;;;;;;;0.50;0.25;;;;;;;22.02;42.12;98687.16;5133470;28;20042;-69
2022/04/08 01:34:22;;;;;;;0.43;0.25;;;;;;;21.99;42.22;98681.19;5133544;28;20108;-68
2022/04/08 01:36:47;;;;;;;0.30;0.20;;;;;;;22.00;42.01;98679.19;5133389;28;20058;-68
2022/04/08 01:39:13;;;;;;;0.30;0.13;;;;;;;21.99;42.31;98672.84;5131503;27;20435;-68
2022/04/08 01:41:38;;;;;;;0.28;0.20;;;;;;;21.99;42.14;98674.81;5133392;28;20049;-68
2022/04/08 01:44:03;;;;;;;0.13;0.10;;;;;;;21.99;41.97;98672.03;5133530;28;20038;-67
2022/04/08 01:46:29;;;;;;;0.10;0.10;;;;;;;21.98;42.23;98674.03;5133475;28;20045;-68
2022/04/08 01:48:55;;;;;;;0.35;0.20;;;;;;;21.94;42.12;98667.69;5133435;28;20073;-68
2022/04/08 01:51:24;;;;;;;0.10;0.10;;;;;;;21.94;42.07;98667.69;5133400;28;20043;-68
2022/04/08 01:53:50;;;;;;;0.20;0.20;;;;;;;21.95;41.95;98663.72;5133279;28;20495;-68
2022/04/08 01:56:15;;;;;;;0.10;0.10;;;;;;;21.93;41.97;98652.19;5133283;28;20079;-61
2022/04/08 01:58:41;;;;;;;0.35;0.20;;;;;;;21.92;42.31;98653.34;5133397;28;20086;-67
2022/04/08 02:01:06;;;;;;;0.20;0.20;;;;;;;21.92;42.17;98653.34;5133288;28;20039;-69
2022/04/08 02:03:33;;;;;;;0.30;0.20;;;;;;;21.92;41.82;98655.34;5133372;28;20047;-69
2022/04/08 02:05:58;;;;;;;0.32;0.25;;;;;;;21.90;42.11;98658.53;5133157;28;20035;-68
2022/04/08 02:08:24;;;;;;;0.20;0.20;;;;;;;21.92;41.76;98649.78;5133247;28;20035;-68
2022/04/08 02:10:50;;;;;;;0.25;0.20;;;;;;;21.92;41.76;98638.63;5133190;28;20032;-67
2022/04/08 02:13:16;;;;;;;0.10;0.10;;;;;;;21.92;41.74;98641.44;5132902;28;20130;-68
2022/04/08 02:15:41;;;;;;;0.22;0.20;;;;;;;21.92;42.00;98647.00;5132986;28;20130;-61
2022/04/08 02:18:07;;;;;;;0.43;0.30;;;;;;;21.92;42.07;98633.88;5132757;28;20085;-61
2022/04/08 02:20:33;;;;;;;0.10;0.10;;;;;;;21.89;41.86;98631.91;5132871;28;20035;-61
2022/04/08 02:22:59;;;;;;;0.13;0.10;;;;;;;21.91;41.63;98625.91;5132978;28;20485;-61
2022/04/08 02:25:26;;;;;;;0.28;0.20;;;;;;;21.89;41.64;98631.91;5132845;28;20031;-61
2022/04/08 02:27:52;;;;;;;0.15;0.15;;;;;;;21.90;41.88;98633.47;5132908;28;20055;-61
2022/04/08 02:30:18;;;;;;;0.28;0.20;;;;;;;21.92;41.72;98616.38;5132548;27;20452;-61
2022/04/08 02:32:43;;;;;;;0.25;0.20;;;;;;;21.93;41.67;98629.09;5132677;28;20636;-61
2022/04/08 02:35:09;;;;;;;0.32;0.30;;;;;;;21.89;41.55;98623.53;5132687;28;20153;-62
2022/04/08 02:37:34;;;;;;;0.20;0.20;;;;;;;21.93;41.78;98623.53;5132647;28;20050;-61
2022/04/08 02:40:00;;;;;;;0.20;0.20;;;;;;;21.93;41.52;98624.34;5132746;28;20407;-61
2022/04/08 02:42:25;;;;;;;0.03;0.03;;;;;;;21.93;41.69;98629.91;5101369;28;20044;-61
2022/04/08 02:44:51;;;;;;;0.60;0.35;;;;;;;21.93;41.55;98606.81;5132651;28;20498;-61
2022/04/08 02:47:16;;;;;;;0.20;0.20;;;;;;;21.92;41.68;98606.03;5132653;28;20040;-61
2022/04/08 02:49:42;;;;;;;0.50;0.20;;;;;;;21.93;41.67;98607.63;5132450;28;20128;-61
2022/04/08 02:52:07;;;;;;;0.13;0.13;;;;;;;21.92;41.55;98608.81;5132454;28;20039;-61
2022/04/08 02:54:33;;;;;;;0.30;0.20;;;;;;;21.95;41.67;98605.22;5132268;28;20055;-61
2022/04/08 02:56:58;;;;;;;0.15;0.15;;;;;;;21.92;41.40;98600.44;5132500;28;20062;-61
2022/04/08 02:59:24;;;;;;;0.20;0.20;;;;;;;21.93;41.42;98602.06;5132390;28;20047;-61
2022/04/08 03:01:49;;;;;;;0.38;0.20;;;;;;;21.94;41.79;98591.72;5132182;28;20039;-61
2022/04/08 03:04:15;;;;;;;0.10;0.10;;;;;;;21.97;41.41;98591.69;5132382;28;20498;-61
2022/04/08 03:06:40;;;;;;;0.10;0.10;;;;;;;21.96;41.65;98590.13;5132057;28;20055;-61
2022/04/08 03:09:06;;;;;;;0.38;0.20;;;;;;;21.96;41.52;98590.13;5132253;28;20107;-61
2022/04/08 03:11:33;;;;;;;0.20;0.10;;;;;;;21.96;41.50;98578.19;5132137;28;20084;-61
2022/04/08 03:14:00;;;;;;;0.10;0.10;;;;;;;21.94;41.67;98575.81;5132105;28;20540;-61
2022/04/08 03:16:26;;;;;;;0.17;0.10;;;;;;;21.99;41.67;98571.78;5131657;28;20112;-61
2022/04/08 03:18:51;;;;;;;0.10;0.10;;;;;;;21.98;41.68;98570.22;5132015;28;20039;-62
2022/04/08 03:21:16;;;;;;;0.10;0.10;;;;;;;21.99;41.59;98566.22;5132015;28;20035;-61
2022/04/08 03:23:43;;;;;;;0.20;0.20;;;;;;;21.97;41.51;98561.06;5132090;28;20130;-61
2022/04/08 03:26:09;;;;;;;0.20;0.20;;;;;;;21.99;41.68;98560.66;5131974;28;20777;-61
2022/04/08 03:28:34;;;;;;;0.30;0.20;;;;;;;22.00;41.41;98559.47;5131726;28;20061;-61
2022/04/08 03:31:01;;;;;;;0.40;0.17;;;;;;;21.99;41.40;98544.75;5131508;28;20122;-61
2022/04/08 03:33:26;;;;;;;0.10;0.10;;;;;;;22.00;41.61;98545.53;5131836;28;20039;-61
2022/04/08 03:35:52;;;;;;;0.10;0.10;;;;;;;21.99;41.56;98553.09;5131789;28;20104;-61
2022/04/08 03:38:17;;;;;;;0.13;0.10;;;;;;;21.99;41.34;98547.53;5131666;28;20042;-61
2022/04/08 03:40:42;;;;;;;0.10;0.10;;;;;;;22.01;41.34;98554.72;5131694;28;20062;-61
2022/04/08 03:43:08;;;;;;;0.20;0.20;;;;;;;22.01;41.59;98549.13;5130902;27;20099;-61
2022/04/08 03:45:33;;;;;;;0.35;0.20;;;;;;;21.99;41.65;98541.97;5131396;28;20051;-61
2022/04/08 03:47:59;;;;;;;0.10;0.10;;;;;;;22.02;41.60;98547.94;5131663;28;20106;-61
2022/04/08 03:50:24;;;;;;;0.30;0.20;;;;;;;21.98;41.60;98537.59;5131527;28;20418;-61
2022/04/08 03:52:50;;;;;;;0.10;0.10;;;;;;;22.02;41.49;98534.00;5131528;28;20039;-61
2022/04/08 03:55:17;;;;;;;0.30;0.20;;;;;;;22.02;41.44;98531.22;5131473;28;20088;-61
2022/04/08 03:57:42;;;;;;;0.20;0.10;;;;;;;21.99;41.63;98528.03;5131376;28;20043;-61
2022/04/08 04:00:09;;;;;;;0.10;0.10;;;;;;;22.00;41.32;98517.69;5131523;28;20403;-61
2022/04/08 04:02:35;;;;;;;0.35;0.20;;;;;;;22.02;41.49;98525.66;5131423;28;20041;-61
2022/04/08 04:05:01;;;;;;;0.20;0.17;;;;;;;21.99;41.34;98516.91;5131317;28;20525;-61
2022/04/08 04:07:27;;;;;;;0.22;0.20;;;;;;;21.98;41.58;98514.53;5131257;28;20096;-61
2022/04/08 04:09:53;;;;;;;0.45;0.28;;;;;;;22.01;41.73;98521.28;5131212;28;20039;-61
2022/04/08 04:12:18;;;;;;;0.22;0.20;;;;;;;21.99;41.45;98522.47;5131217;28;20491;-61
2022/04/08 04:14:44;;;;;;;0.25;0.22;;;;;;;21.98;41.42;98512.53;5131159;28;20107;-61
2022/04/08 04:17:09;;;;;;;0.45;0.30;;;;;;;21.99;41.37;98518.88;5131123;28;20138;-61
2022/04/08 04:19:35;;;;;;;0.50;0.30;;;;;;;21.98;41.45;98529.22;5130488;28;20040;-61
2022/04/08 04:22:00;;;;;;;0.20;0.20;;;;;;;21.96;41.56;98520.50;5131202;28;20082;-61
2022/04/08 04:24:26;;;;;;;0.10;0.10;;;;;;;21.98;41.74;98515.31;5131044;28;20407;-61
2022/04/08 04:26:51;;;;;;;0.47;0.30;;;;;;;22.02;41.69;98514.53;5131028;28;20051;-61
2022/04/08 04:29:18;;;;;;;0.32;0.20;;;;;;;22.03;41.37;98518.88;5130903;28;20039;-61
2022/04/08 04:31:44;;;;;;;0.30;0.30;;;;;;;22.02;41.47;98511.75;5130724;28;20531;-61
2022/04/08 04:34:09;;;;;;;0.45;0.20;;;;;;;22.03;41.40;98511.31;5130901;28;20086;-68
2022/04/08 04:36:34;;;;;;;0.52;0.30;;;;;;;22.02;41.45;98512.53;5130613;28;20418;-68
2022/04/08 04:39:00;;;;;;;0.30;0.20;;;;;;;22.05;41.71;98502.56;5130814;28;20130;-68
2022/04/08 04:41:25;;;;;;;0.20;0.20;;;;;;;22.03;41.37;98508.53;5130962;28;20122;-68
2022/04/08 04:43:51;;;;;;;0.20;0.20;;;;;;;22.04;41.73;98506.56;5130612;28;20049;-69
2022/04/08 04:46:16;;;;;;;0.28;0.20;;;;;;;22.02;41.72;98503.38;5130691;28;20039;-68
2022/04/08 04:48:42;;;;;;;0.57;0.20;;;;;;;22.01;41.46;98499.03;5130814;28;20355;-62
2022/04/08 04:51:07;;;;;;;0.20;0.20;;;;;;;22.03;41.37;98505.75;5130695;28;20082;-61
2022/04/08 04:53:33;;;;;;;0.13;0.13;;;;;;;22.04;41.48;98510.13;5130503;27;20035;-61
2022/04/08 04:55:59;;;;;;;0.40;0.20;;;;;;;22.02;41.50;98512.53;5130411;28;20126;-61
2022/04/08 04:58:24;;;;;;;0.43;0.20;;;;;;;22.01;41.44;98497.03;5130449;28;20070;-61
2022/04/08 05:00:50;;;;;;;0.45;0.20;;;;;;;22.02;41.75;98498.59;5130534;28;20082;-61
2022/04/08 05:03:15;;;;;;;0.35;0.20;;;;;;;22.04;41.76;98498.19;5130472;28;20043;-61
2022/04/08 05:05:41;;;;;;;0.20;0.15;;;;;;;22.03;41.76;98491.03;5130545;28;20104;-60
2022/04/08 05:08:07;;;;;;;0.88;0.20;;;;;;;22.02;41.51;98493.03;5130384;28;20039;-61
2022/04/08 05:10:33;;;;;;;0.20;0.20;;;;;;;22.03;41.88;98486.25;5130418;28;20039;-61
2022/04/08 05:13:01;;;;;;;0.32;0.20;;;;;;;22.03;41.88;98496.63;5130207;28;20043;-60
2022/04/08 05:15:28;;;;;;;0.20;0.20;;;;;;;22.05;41.62;98488.63;5129837;28;20089;-61
2022/04/08 05:17:54;;;;;;;0.68;0.20;;;;;;;22.06;41.86;98481.88;5130113;28;20050;-68
2022/04/08 05:20:20;;;;;;;0.28;0.25;;;;;;;22.05;41.98;98491.41;5130152;28;20043;-68
2022/04/08 05:22:45;;;;;;;0.73;0.20;;;;;;;22.05;41.59;98477.50;5130289;28;20047;-68
2022/04/08 05:25:11;;;;;;;0.10;0.10;;;;;;;22.06;41.65;98488.22;5130070;28;20079;-67
2022/04/08 05:27:41;;;;;;;0.20;0.20;;;;;;;22.04;41.68;98478.69;5130040;28;20124;-68
2022/04/08 05:30:08;;;;;;;0.10;0.10;;;;;;;22.04;42.02;98490.63;5125811;28;20118;-68
2022/04/08 05:32:34;;;;;;;0.20;0.20;;;;;;;22.05;41.87;98485.84;5130213;28;20075;-68
2022/04/08 05:35:00;;;;;;;0.43;0.17;;;;;;;22.04;42.10;98484.28;5130028;28;20066;-68
2022/04/08 05:37:25;;;;;;;0.08;0.08;;;;;;;22.03;42.02;98493.81;5129893;28;20051;-67
2022/04/08 05:39:53;;;;;;;0.10;0.10;;;;;;;22.01;42.00;98494.25;5130119;28;20445;-68
2022/04/08 05:42:19;;;;;;;0.35;0.20;;;;;;;22.03;42.43;98504.97;5129850;28;20057;-62
2022/04/08 05:44:44;;;;;;;0.28;0.20;;;;;;;21.99;42.72;98500.19;5130192;28;20133;-61
2022/04/08 05:47:10;;;;;;;3.53;0.30;;;;;;;22.01;42.50;98505.38;5129940;28;20439;-61
2022/04/08 05:49:35;;;;;;;1.65;0.20;;;;;;;22.01;42.52;98507.38;5129623;28;20043;-61
2022/04/08 05:52:01;;;;;;;2.85;0.20;;;;;;;22.02;42.37;98504.19;5129942;28;20043;-61
2022/04/08 05:54:26;;;;;;;0.10;0.10;;;;;;;22.01;42.40;98510.16;5129754;28;20078;-61
2022/04/08 05:56:52;;;;;;;1.08;0.22;;;;;;;21.98;42.71;98512.53;5129759;28;20143;-61
2022/04/08 05:59:17;;;;;;;2.28;0.25;;;;;;;21.98;42.45;98512.53;5129472;28;20043;-62
2022/04/08 06:01:43;;;;;;;0.65;0.30;;;;;;;21.99;42.42;98510.53;5129825;28;20062;-61
2022/04/08 06:04:08;;;;;;;0.60;0.30;;;;;;;21.99;42.46;98511.31;5129631;28;20452;-61
2022/04/08 06:06:34;;;;;;;0.13;0.10;;;;;;;22.01;42.38;98510.94;5131283;27;20051;-61
2022/04/08 06:08:59;;;;;;;0.20;0.20;;;;;;;21.97;42.53;98507.38;5133157;28;20495;-61
2022/04/08 06:11:24;;;;;;;0.50;0.20;;;;;;;21.98;42.64;98514.53;5133026;28;20045;-61
2022/04/08 06:13:50;;;;;;;2.13;0.15;;;;;;;21.99;42.39;98511.31;5132995;28;20039;-61
2022/04/08 06:16:15;;;;;;;0.10;0.10;;;;;;;21.98;42.47;98509.75;5132780;28;20509;-61
2022/04/08 06:18:41;;;;;;;0.25;0.20;;;;;;;21.98;42.37;98509.75;5133036;28;20043;-61
2022/04/08 06:21:06;;;;;;;0.93;0.20;;;;;;;21.97;42.48;98519.31;5133049;28;20047;-61
2022/04/08 06:23:31;;;;;;;0.82;0.10;;;;;;;21.96;42.52;98506.59;5133221;28;20049;-61
2022/04/08 06:25:57;;;;;;;0.47;0.20;;;;;;;21.97;42.40;98515.72;5132939;28;20444;-61
2022/04/08 06:28:22;;;;;;;0.20;0.20;;;;;;;21.97;42.56;98501.81;5132942;28;20043;-61
2022/04/08 06:30:48;;;;;;;0.10;0.10;;;;;;;21.95;42.30;98504.22;5132725;28;20062;-61
2022/04/08 06:33:13;;;;;;;0.45;0.17;;;;;;;21.95;42.52;98520.91;5132749;28;20051;-61
2022/04/08 06:35:39;;;;;;;0.30;0.20;;;;;;;21.97;42.37;98507.38;5132838;28;20035;-61
2022/04/08 06:38:06;;;;;;;0.40;0.20;;;;;;;21.96;42.66;98520.50;5132683;28;20071;-61
2022/04/08 06:40:37;;;;;;;0.73;0.20;;;;;;;21.97;42.38;98522.09;5132530;28;20458;-61
2022/04/08 06:43:03;;;;;;;0.20;0.20;;;;;;;21.97;42.66;98507.38;5132804;28;20045;-61
2022/04/08 06:45:29;;;;;;;1.75;0.30;;;;;;;21.97;42.32;98510.16;5123528;28;20671;-61
2022/04/08 06:47:55;;;;;;;0.20;0.20;;;;;;;22.01;42.34;98518.50;5120964;28;20443;-61
2022/04/08 06:50:21;;;;;;;1.23;0.20;;;;;;;22.01;42.46;98518.50;5118371;28;20096;-61
2022/04/08 06:52:50;;;;;;;0.10;0.10;;;;;;;22.02;42.13;98515.31;5123876;28;20117;-61
2022/04/08 06:55:15;;;;;;;0.17;0.10;;;;;;;22.03;42.15;98516.09;5121541;28;20039;-62
2022/04/08 06:57:42;;;;;;;0.57;0.25;;;;;;;22.01;42.50;98501.81;5120517;28;20449;-60
2022/04/08 07:00:10;;;;;;;0.28;0.13;;;;;;;22.01;42.30;98507.38;5128762;28;20477;-62
2022/04/08 07:02:35;;;;;;;0.30;0.20;;;;;;;22.02;42.35;98508.94;5131522;28;20043;-62
2022/04/08 07:05:01;;;;;;;0.30;0.17;;;;;;;22.02;42.28;98500.59;5131844;28;20469;-61
2022/04/08 07:07:32;;;;;;;0.43;0.20;;;;;;;22.00;42.20;98503.75;5124046;28;20035;-62
2022/04/08 07:09:57;;;;;;;0.50;0.25;;;;;;;22.02;42.39;98503.38;5124143;28;20525;-61
2022/04/08 07:12:24;;;;;;;0.47;0.20;;;;;;;22.02;42.43;98495.03;5129072;28;20062;-62
2022/04/08 07:14:50;;;;;;;0.50;0.20;;;;;;;22.00;42.42;98503.75;5125837;28;20047;-61
2022/04/08 07:17:15;;;;;;;0.38;0.20;;;;;;;22.29;42.13;98496.13;5114430;28;21375;-61
2022/04/08 07:19:41;;;;;;;0.70;0.30;;;;;;;22.92;40.64;98488.50;5121892;28;20050;-60
2022/04/08 07:22:06;;;;;;;0.10;0.10;;;;;;;23.61;39.31;98492.25;5130936;28;20042;-61
2022/04/08 07:24:31;;;;;;;0.28;0.10;;;;;;;23.85;38.53;98481.97;5130961;28;20054;-61
2022/04/08 07:26:57;;;;;;;0.28;0.20;;;;;;;24.01;38.32;98482.19;5125669;28;20042;-60
2022/04/08 07:29:22;;;;;;;1.15;0.30;;;;;;;24.34;37.77;98488.94;5073732;28;20131;-61
2022/04/08 07:31:47;;;;;;;0.15;0.13;;;;;;;24.67;37.29;98476.06;5091602;28;20063;-61
2022/04/08 07:34:13;;;;;;;0.13;0.13;;;;;;;24.98;36.45;98464.75;5110004;28;20483;-62
2022/04/08 07:36:38;;;;;;;1.80;0.10;;;;;;;25.15;36.19;98455.31;5110310;28;20058;-63
2022/04/08 07:39:04;;;;;;;0.77;0.35;;;;;;;25.34;36.16;98450.16;5108385;28;20054;-64
2022/04/08 07:41:29;;;;;;;1.02;0.40;;;;;;;25.50;35.72;98461.44;5108501;28;20050;-63
2022/04/08 07:43:55;;;;;;;1.08;0.32;;;;;;;25.59;35.31;98478.47;5109664;28;20078;-63
2022/04/08 07:46:21;;;;;;;2.25;0.30;;;;;;;25.61;35.36;98469.63;5115768;28;20134;-65
2022/04/08 07:48:47;;;;;;;0.65;0.30;;;;;;;25.74;35.47;98471.38;5111685;28;20127;-64
2022/04/08 07:51:12;;;;;;;0.45;0.20;;;;;;;25.78;35.00;98468.50;5115492;28;20127;-66
2022/04/08 07:53:37;;;;;;;0.75;0.30;;;;;;;25.82;35.08;98474.03;5112453;28;20122;-65
2022/04/08 07:56:03;;;;;;;0.80;0.22;;;;;;;25.81;35.08;98472.47;5117963;27;20456;-65
2022/04/08 07:58:29;;;;;;;0.25;0.20;;;;;;;25.84;35.11;98466.00;5078532;28;20040;-67
2022/04/08 08:00:54;;;;;;;5.00;0.20;;;;;;;25.83;35.24;98472.81;5081761;27;20655;-65
2022/04/08 08:03:20;;;;;;;0.55;0.30;;;;;;;25.81;35.31;98476.06;5115481;28;20575;-66
2022/04/08 08:05:46;;;;;;;0.50;0.30;;;;;;;25.81;35.18;98478.06;5084273;28;20059;-65
2022/04/08 08:08:11;;;;;;;2.67;0.30;;;;;;;25.80;35.01;98471.69;5126966;28;20050;-66
2022/04/08 08:10:38;;;;;;;0.20;0.20;;;;;;;25.76;35.31;98468.94;5110894;28;20046;-65
2022/04/08 08:13:04;;;;;;;0.32;0.28;;;;;;;25.71;35.38;98475.00;5123509;28;20051;-66
2022/04/08 08:15:31;;;;;;;0.93;0.30;;;;;;;25.73;35.00;98475.41;5108043;28;20080;-65
2022/04/08 08:17:57;;;;;;;0.30;0.20;;;;;;;25.71;35.36;98475.00;5117466;28;20047;-65
2022/04/08 08:20:23;;;;;;;0.55;0.40;;;;;;;25.71;35.35;98491.81;5120748;28;20046;-68
2022/04/08 08:22:49;;;;;;;0.40;0.30;;;;;;;25.46;35.57;98497.13;5120298;28;20040;-66
2022/04/08 08:25:16;;;;;;;0.90;0.43;;;;;;;24.94;36.92;98503.22;5112180;28;20104;-68
2022/04/08 08:27:42;;;;;;;0.77;0.43;;;;;;;24.54;37.64;98514.22;5109950;28;20074;-66
2022/04/08 08:30:12;;;;;;;3.30;0.80;;;;;;;24.27;38.44;98510.56;5113032;28;20104;-63
2022/04/08 08:32:39;;;;;;;2.50;0.98;;;;;;;24.03;39.25;98516.06;5117046;28;20076;-63
2022/04/08 08:35:09;;;;;;;4.18;1.50;;;;;;;23.77;40.15;98514.00;5114907;28;20514;-64
2022/04/08 08:37:35;;;;;;;5.72;2.20;;;;;;;23.53;41.09;98511.03;5114857;28;20078;-64
2022/04/08 08:40:02;;;;;;;4.05;1.30;;;;;;;23.24;41.42;98504.97;5112509;28;20075;-63
2022/04/08 08:42:29;;;;;;;2.03;0.75;;;;;;;23.06;42.21;98491.16;5109659;28;20047;-66
2022/04/08 08:44:56;;;;;;;2.08;1.00;;;;;;;22.95;42.36;98487.69;5109952;28;20104;-65
2022/04/08 08:47:25;;;;;;;3.88;0.90;;;;;;;22.92;42.59;98499.66;5109196;28;20564;-63
2022/04/08 08:49:50;;;;;;;1.50;0.75;;;;;;;22.85;43.13;98496.09;5113690;28;20059;-62
2022/04/08 08:52:19;;;;;;;1.33;0.50;;;;;;;22.73;43.14;98489.03;5110679;28;20039;-64
2022/04/08 08:54:46;;;;;;;1.65;0.70;;;;;;;22.73;43.47;98495.41;5111925;28;20187;-65
2022/04/08 08:57:14;;;;;;;1.67;0.77;;;;;;;22.61;43.39;98493.09;5109894;28;20044;-60
2022/04/08 08:59:40;;;;;;;1.00;0.50;;;;;;;22.56;43.68;98503.88;5113585;28;20097;-65
2022/04/08 09:02:05;;;;;;;1.52;0.70;;;;;;;22.49;43.83;98501.94;5105256;28;20043;-60
2022/04/08 09:04:31;;;;;;;3.20;0.55;;;;;;;22.43;44.45;98501.59;5108177;28;20059;-61
2022/04/08 09:06:59;;;;;;;1.38;0.40;;;;;;;22.38;44.58;98499.22;5113534;28;20043;-63
2022/04/08 09:09:31;;;;;;;1.33;0.55;;;;;;;22.35;44.52;98502.81;5110709;28;20036;-63
2022/04/08 09:12:13;;;;;;;1.85;0.50;;;;;;;22.34;44.78;98503.22;5111528;28;20042;-63
2022/04/08 09:14:39;;;;;;;0.75;0.52;;;;;;;22.41;44.66;98509.56;5110364;28;20031;-59
2022/04/08 09:17:04;;;;;;;1.40;0.60;;;;;;;22.62;44.12;98505.84;5104505;28;20094;-58
2022/04/08 09:19:36;;;;;;;1.67;0.60;;;;;;;23.09;43.14;98499.94;5107680;27;20419;-59
2022/04/08 09:22:01;;;;;;;1.52;0.70;;;;;;;23.40;42.40;98507.19;5111813;28;20047;-60
2022/04/08 09:24:27;;;;;;;1.58;0.80;;;;;;;23.67;41.92;98498.16;5089842;28;20131;-60
2022/04/08 09:26:54;;;;;;;0.90;0.55;;;;;;;23.83;41.48;98492.78;5110799;28;20043;-60
2022/04/08 09:29:21;;;;;;;1.83;0.80;;;;;;;23.92;41.10;98493.06;5106933;27;20077;-61
2022/04/08 09:31:51;;;;;;;1.98;0.70;;;;;;;24.00;41.20;98494.53;5112033;28;20036;-61
2022/04/08 09:34:18;;;;;;;0.77;0.63;;;;;;;24.08;40.75;98489.69;5107510;28;20048;-60
2022/04/08 09:36:44;;;;;;;1.65;0.70;;;;;;;24.16;40.83;98486.38;5109332;28;20750;-60
2022/04/08 09:39:10;;;;;;;0.98;0.60;;;;;;;24.24;40.70;98500.25;5104718;27;20075;-62
2022/04/08 09:41:38;;;;;;;1.42;0.63;;;;;;;24.23;40.52;98496.66;5112050;27;20046;-59
2022/04/08 09:44:03;;;;;;;1.67;0.77;;;;;;;24.27;40.42;98497.38;5113566;28;20032;-59
2022/04/08 09:46:29;;;;;;;1.77;0.63;;;;;;;24.37;40.37;98487.31;5114100;28;20046;-61
2022/04/08 09:48:54;;;;;;;1.38;0.77;;;;;;;24.37;40.49;98492.91;5112656;28;20046;-65
2022/04/08 09:51:21;;;;;;;0.77;0.57;;;;;;;24.38;40.57;98486.09;5112717;28;20055;-62
2022/04/08 09:54:00;;;;;;;2.95;0.70;;;;;;;24.34;40.39;98474.97;5115603;28;20043;-62
2022/04/08 09:56:28;;;;;;;3.20;0.77;;;;;;;24.31;40.54;98470.19;5115247;28;20138;-59
2022/04/08 09:59:10;;;;;;;1.42;0.70;;;;;;;23.83;41.68;98479.59;5110509;28;20035;-58
2022/04/08 10:01:36;;;;;;;1.55;0.75;;;;;;;23.40;42.64;98475.69;5119807;28;20039;-59
2022/04/08 10:04:07;;;;;;;1.40;0.70;;;;;;;23.17;43.19;98476.34;5107837;28;20054;-66
2022/04/08 10:06:37;;;;;;;2.03;0.98;;;;;;;22.96;43.64;98478.13;5112084;28;20044;-65
2022/04/08 10:09:06;;;;;;;2.60;1.00;;;;;;;22.80;44.27;98466.69;5114388;28;20057;-67
2022/04/08 10:11:55;;;;;;;1.90;0.85;;;;;;;22.76;43.48;98472.28;5115603;28;20055;-64
2022/04/08 10:14:44;;;;;;;3.03;1.15;;;;;;;22.64;44.49;98471.97;5111430;28;20150;-68
2022/04/08 10:17:09;;;;;;;2.17;1.20;;;;;;;22.57;44.72;98472.03;5096122;28;20043;-68
2022/04/08 10:19:35;;;;;;;2.05;1.10;;;;;;;22.48;45.00;98464.91;5111814;28;20093;-65
2022/04/08 10:22:01;;;;;;;3.45;1.27;;;;;;;22.45;44.99;98456.59;5114021;28;20054;-65
2022/04/08 10:24:29;;;;;;;2.60;1.10;;;;;;;22.42;45.01;98454.63;5114118;28;20047;-63
2022/04/08 10:27:01;;;;;;;1.88;1.13;;;;;;;22.45;45.08;98448.25;5111772;28;20158;-64
2022/04/08 10:29:27;;;;;;;3.03;1.20;;;;;;;22.41;44.99;98453.81;5116883;27;20157;-59
2022/04/08 10:31:56;;;;;;;1.48;0.88;;;;;;;22.39;45.09;98449.88;5112047;28;20061;-58
2022/04/08 10:34:22;;;;;;;3.20;1.00;;;;;;;22.36;45.36;98437.56;5111046;28;20297;-59
2022/04/08 10:36:48;;;;;;;2.33;1.15;;;;;;;22.35;45.24;98432.38;5112985;28;20047;-59
2022/04/08 10:39:15;;;;;;;1.70;1.00;;;;;;;22.32;45.53;98425.63;5111811;28;20043;-59
2022/04/08 10:42:08;;;;;;;1.92;1.05;;;;;;;22.31;45.41;98432.41;5111645;28;20105;-59
2022/04/08 10:44:39;;;;;;;1.92;1.00;;;;;;;22.30;45.39;98425.25;5109501;28;20040;-59
2022/04/08 10:47:11;;;;;;;1.30;0.90;;;;;;;22.28;45.62;98432.44;5112900;28;20054;-58
2022/04/08 10:49:58;;;;;;;1.30;0.93;;;;;;;22.26;45.55;98421.69;5112360;28;20389;-59
2022/04/08 10:52:26;;;;;;;1.88;1.00;;;;;;;22.24;45.57;98413.75;5113695;27;20112;-63
2022/04/08 10:55:12;;;;;;;1.20;0.80;;;;;;;22.22;45.38;98410.59;5114803;28;20040;-63
2022/04/08 10:57:45;;;;;;;1.75;1.00;;;;;;;22.22;45.48;98407.81;5115179;28;20467;-59
2022/04/08 11:00:18;;;;;;;3.13;1.00;;;;;;;22.22;45.58;98407.81;5117728;28;20132;-59
2022/04/08 11:02:46;;;;;;;2.30;0.93;;;;;;;22.20;45.42;98406.63;5116128;28;20164;-59
2022/04/08 11:05:13;;;;;;;1.70;1.02;;;;;;;22.16;45.62;98400.28;5116698;28;20058;-59
2022/04/08 11:07:40;;;;;;;1.38;0.90;;;;;;;22.18;45.84;98406.25;5113957;28;20050;-58
2022/04/08 11:10:18;;;;;;;1.80;1.05;;;;;;;22.14;45.68;98402.66;5117012;28;20047;-58
2022/04/08 11:12:45;;;;;;;1.58;1.00;;;;;;;22.14;45.91;98403.47;5114377;28;20510;-59
2022/04/08 11:15:18;;;;;;;1.58;0.95;;;;;;;22.13;45.60;98387.16;5110478;28;20035;-58
2022/04/08 11:17:46;;;;;;;1.15;0.80;;;;;;;22.12;45.74;98405.88;5113804;28;20520;-58
2022/04/08 11:20:17;;;;;;;1.40;0.80;;;;;;;22.12;45.77;98417.00;5114271;28;20104;-59
2022/04/08 11:22:44;;;;;;;1.83;0.95;;;;;;;22.11;46.00;98407.06;5116303;28;20044;-59
2022/04/08 11:25:18;;;;;;;1.48;0.90;;;;;;;22.10;45.93;98402.72;5114248;28;20036;-58
2022/04/08 11:27:43;;;;;;;1.17;0.85;;;;;;;22.10;45.67;98390.78;5111317;28;20567;-59
2022/04/08 11:30:09;;;;;;;1.80;1.00;;;;;;;22.07;45.77;98386.78;5118230;28;20118;-64
2022/04/08 11:32:38;;;;;;;1.70;0.90;;;;;;;22.10;45.70;98379.66;5113205;28;20113;-65